createdAt,value
2019-04-20T00:00:56.168Z,9.60
2019-04-20T00:03:30.941Z,9.50
2019-04-20T00:05:57.343Z,9.50
2019-04-20T00:08:31.137Z,9.40
2019-04-20T00:11:07.441Z,9.30
2019-04-20T00:13:40.787Z,9.20
2019-04-20T00:15:59.952Z,9.20
2019-04-20T00:18:36.124Z,9.20
2019-04-20T00:21:20.815Z,9.10
2019-04-20T00:23:53.115Z,9.10
2019-04-20T00:27:04.956Z,9.00
2019-04-20T00:29:23.935Z,9.00
2019-04-20T00:31:49.233Z,9.00
2019-04-20T00:34:17.286Z,8.90
2019-04-20T00:36:39.192Z,8.80
2019-04-20T00:39:11.496Z,8.80
2019-04-20T00:41:47.994Z,8.80
2019-04-20T00:44:17.269Z,8.80
2019-04-20T00:46:58.753Z,8.70
2019-04-20T00:49:27.593Z,8.70
2019-04-20T00:52:17.240Z,8.70
2019-04-20T00:54:15.977Z,8.60
2019-04-20T00:56:45.638Z,8.60
2019-04-20T00:59:27.564Z,8.60
2019-04-20T01:02:03.665Z,8.50
2019-04-20T01:04:39.010Z,8.50
2019-04-20T01:07:27.381Z,8.40
2019-04-20T01:10:05.033Z,8.40
2019-04-20T01:12:36.602Z,8.40
2019-04-20T01:15:10.802Z,8.30
2019-04-20T01:17:41.649Z,8.30
2019-04-20T01:20:09.580Z,8.30
2019-04-20T01:22:44.594Z,8.30
2019-04-20T01:25:18.350Z,8.20
2019-04-20T01:28:01.946Z,8.20
2019-04-20T01:30:23.879Z,8.10
2019-04-20T01:33:02.352Z,8.10
2019-04-20T01:35:35.567Z,8.10
2019-04-20T01:38:09.619Z,8.10
2019-04-20T01:40:19.356Z,8.00
2019-04-20T01:42:49.136Z,8.00
2019-04-20T01:45:26.772Z,7.90
2019-04-20T01:47:54.079Z,7.90
2019-04-20T01:50:26.062Z,7.90
2019-04-20T01:53:04.572Z,7.90
2019-04-20T01:55:42.501Z,7.80
2019-04-20T01:58:25.379Z,7.80
2019-04-20T02:01:13.703Z,7.80
2019-04-20T02:03:48.252Z,7.80
2019-04-20T02:06:18.715Z,7.70
2019-04-20T02:08:52.893Z,7.70
2019-04-20T02:11:25.448Z,7.70
2019-04-20T02:13:55.146Z,7.60
2019-04-20T02:16:28.803Z,7.60
2019-04-20T02:19:10.815Z,7.60
2019-04-20T02:21:38.826Z,7.60
2019-04-20T02:23:59.340Z,7.60
2019-04-20T02:26:26.074Z,7.60
2019-04-20T02:29:21.246Z,7.50
2019-04-20T02:32:18.146Z,7.50
2019-04-20T02:34:57.810Z,7.50
2019-04-20T02:40:09.110Z,7.50
2019-04-20T02:42:46.674Z,7.50
2019-04-20T02:47:46.049Z,7.40
2019-04-20T02:50:14.949Z,7.40
2019-04-20T02:55:15.179Z,7.40
2019-04-20T03:00:12.233Z,7.40
2019-04-20T03:02:31.377Z,7.40
2019-04-20T03:04:59.997Z,7.40
2019-04-20T03:07:30.451Z,7.30
2019-04-20T03:10:08.425Z,7.30
2019-04-20T03:12:44.958Z,7.30
2019-04-20T03:15:09.723Z,7.30
2019-04-20T03:17:46.323Z,7.20
2019-04-20T03:20:14.712Z,7.30
2019-04-20T03:23:05.169Z,7.20
2019-04-20T03:25:22.833Z,7.20
2019-04-20T03:27:51.651Z,7.20
2019-04-20T03:33:53.922Z,7.10
2019-04-20T03:36:07.855Z,7.10
2019-04-20T03:38:26.215Z,7.10
2019-04-20T03:40:55.005Z,7.00
2019-04-20T03:43:11.846Z,7.00
2019-04-20T03:45:51.744Z,6.90
2019-04-20T03:48:33.697Z,6.90
2019-04-20T03:51:02.108Z,6.90
2019-04-20T03:53:34.475Z,6.90
2019-04-20T03:56:14.037Z,6.90
2019-04-20T03:58:47.352Z,6.90
2019-04-20T04:01:57.491Z,6.80
2019-04-20T04:04:15.222Z,6.80
2019-04-20T04:06:35.200Z,6.80
2019-04-20T04:09:10.231Z,6.80
2019-04-20T04:11:46.162Z,6.80
2019-04-20T04:13:59.179Z,6.80
2019-04-20T04:16:39.445Z,6.80
2019-04-20T04:19:09.969Z,6.80
2019-04-20T04:21:47.411Z,6.70
2019-04-20T04:24:17.060Z,6.70
2019-04-20T04:26:51.171Z,6.70
2019-04-20T04:29:29.865Z,6.70
2019-04-20T04:32:02.324Z,6.70
2019-04-20T04:34:31.222Z,6.60
2019-04-20T04:36:59.306Z,6.60
2019-04-20T04:39:30.914Z,6.60
2019-04-20T04:42:14.126Z,6.60
2019-04-20T04:44:26.284Z,6.60
2019-04-20T04:46:51.091Z,6.60
2019-04-20T04:49:21.048Z,6.60
2019-04-20T04:51:54.394Z,6.60
2019-04-20T04:54:25.819Z,6.60
2019-04-20T04:56:48.399Z,6.60
2019-04-20T04:59:19.220Z,6.60
2019-04-20T05:01:53.104Z,6.60
2019-04-20T05:04:48.359Z,6.60
2019-04-20T05:07:08.018Z,6.60
2019-04-20T05:09:23.960Z,6.60
2019-04-20T05:11:59.749Z,6.70
2019-04-20T05:17:43.466Z,6.80
2019-04-20T05:24:13.565Z,6.90
2019-04-20T05:30:40.287Z,7.00
2019-04-20T05:33:20.059Z,7.10
2019-04-20T05:36:26.390Z,7.20
2019-04-20T06:03:02.324Z,8.70
2019-04-20T06:06:27.390Z,8.80
2019-04-20T06:09:05.515Z,9.00
2019-04-20T06:11:35.230Z,9.30
2019-04-20T06:17:59.747Z,9.70
2019-04-20T06:20:38.087Z,10.00
2019-04-20T06:23:50.952Z,10.30
2019-04-20T06:46:43.173Z,12.00
2019-04-20T06:49:22.411Z,12.20
2019-04-20T06:51:52.807Z,12.40
2019-04-20T06:54:45.170Z,12.60
2019-04-20T06:57:10.219Z,12.80
2019-04-20T07:00:03.700Z,12.90
2019-04-20T07:02:24.582Z,13.10
2019-04-20T07:05:00.247Z,13.30
2019-04-20T07:07:22.423Z,13.50
2019-04-20T07:12:16.785Z,13.70
2019-04-20T07:14:44.634Z,13.70
2019-04-20T07:17:40.766Z,13.70
2019-04-20T07:20:19.464Z,13.80
2019-04-20T07:23:11.634Z,13.80
2019-04-20T07:25:34.564Z,13.90
2019-04-20T07:28:06.518Z,14.00
2019-04-20T07:30:35.534Z,14.20
2019-04-20T07:33:12.637Z,14.30
2019-04-20T07:35:35.739Z,14.50
2019-04-20T07:38:24.401Z,14.70
2019-04-20T07:40:35.503Z,14.90
2019-04-20T07:43:09.286Z,15.00
2019-04-20T07:45:36.588Z,15.20
2019-04-20T07:48:16.778Z,15.30
2019-04-20T07:50:37.381Z,15.40
2019-04-20T07:53:14.245Z,15.60
2019-04-20T07:55:52.649Z,15.70
2019-04-20T07:58:10.843Z,15.80
2019-04-20T08:01:05.752Z,15.90
2019-04-20T08:03:50.341Z,15.90
2019-04-20T08:06:10.289Z,15.90
2019-04-20T08:08:49.067Z,15.90
2019-04-20T08:11:23.204Z,16.10
2019-04-20T08:14:00.317Z,16.20
2019-04-20T08:16:38.058Z,16.30
2019-04-20T08:18:59.736Z,16.50
2019-04-20T08:21:28.739Z,16.60
2019-04-20T08:24:00.939Z,16.60
2019-04-20T08:26:20.229Z,16.70
2019-04-20T08:28:56.338Z,16.70
2019-04-20T08:32:04.135Z,16.80
2019-04-20T08:37:08.503Z,16.90
2019-04-20T08:39:51.160Z,17.00
2019-04-20T08:42:11.635Z,17.10
2019-04-20T08:47:39.518Z,17.30
2019-04-20T08:53:06.211Z,17.60
2019-04-20T08:55:14.789Z,17.60
2019-04-20T08:57:27.150Z,17.80
2019-04-20T08:59:59.686Z,17.80
2019-04-20T09:02:28.216Z,17.70
2019-04-20T09:05:03.436Z,17.60
2019-04-20T09:07:32.069Z,17.60
2019-04-20T09:10:24.068Z,17.60
2019-04-20T09:12:45.254Z,17.70
2019-04-20T09:15:03.708Z,17.80
2019-04-20T09:17:43.516Z,17.90
2019-04-20T09:20:14.447Z,17.90
2019-04-20T09:23:07.055Z,17.90
2019-04-20T09:28:22.347Z,17.90
2019-04-20T09:31:01.851Z,18.00
2019-04-20T09:34:01.485Z,18.00
2019-04-20T09:36:40.831Z,18.10
2019-04-20T09:39:09.997Z,18.30
2019-04-20T09:41:59.635Z,18.40
2019-04-20T09:44:15.470Z,18.40
2019-04-20T09:46:50.044Z,18.50
2019-04-20T09:49:28.589Z,18.60
2019-04-20T09:52:01.694Z,18.70
2019-04-20T09:54:38.264Z,18.80
2019-04-20T09:57:09.202Z,18.80
2019-04-20T09:59:38.237Z,18.90
2019-04-20T10:02:01.921Z,19.10
2019-04-20T10:04:25.792Z,19.10
2019-04-20T10:06:55.381Z,19.20
2019-04-20T10:09:28.051Z,19.20
2019-04-20T10:11:57.625Z,19.30
2019-04-20T10:14:28.904Z,19.40
2019-04-20T10:17:00.044Z,19.40
2019-04-20T10:19:34.674Z,19.60
2019-04-20T10:22:04.680Z,19.60
2019-04-20T10:24:34.835Z,19.70
2019-04-20T10:27:06.215Z,19.70
2019-04-20T10:29:37.480Z,19.80
2019-04-20T10:32:12.148Z,19.80
2019-04-20T10:34:38.820Z,19.80
2019-04-20T10:37:15.664Z,19.90
2019-04-20T10:39:45.135Z,19.90
2019-04-20T10:42:16.231Z,19.90
2019-04-20T10:44:45.683Z,20.00
2019-04-20T10:47:16.905Z,20.10
2019-04-20T10:49:47.062Z,20.20
2019-04-20T10:52:17.924Z,20.30
2019-04-20T10:54:48.107Z,20.40
2019-04-20T10:57:17.527Z,20.50
2019-04-20T10:59:47.745Z,20.60
2019-04-20T11:02:19.520Z,20.70
2019-04-20T11:04:50.571Z,20.90
2019-04-20T11:07:20.774Z,20.90
2019-04-20T11:10:02.199Z,21.00
2019-04-20T11:12:22.117Z,21.00
2019-04-20T11:14:52.307Z,21.00
2019-04-20T11:17:22.541Z,21.00
2019-04-20T11:19:51.990Z,21.10
2019-04-20T11:22:22.258Z,21.10
2019-04-20T11:24:54.361Z,21.00
2019-04-20T11:27:23.695Z,21.00
2019-04-20T11:29:54.105Z,21.00
2019-04-20T11:32:24.228Z,21.00
2019-04-20T11:34:56.461Z,21.10
2019-04-20T11:37:26.822Z,21.20
2019-04-20T11:39:57.047Z,21.30
2019-04-20T11:42:27.715Z,21.40
2019-04-20T11:44:57.767Z,21.40
2019-04-20T11:47:28.133Z,21.40
2019-04-20T11:49:59.768Z,21.40
2019-04-20T11:52:33.210Z,21.40
2019-04-20T11:55:02.303Z,21.50
2019-04-20T11:57:33.366Z,21.60
2019-04-20T12:00:03.639Z,21.60
2019-04-20T12:02:44.322Z,21.70
2019-04-20T12:05:26.190Z,21.70
2019-04-20T12:07:59.222Z,21.70
2019-04-20T12:10:31.397Z,21.80
2019-04-20T12:13:01.801Z,21.80
2019-04-20T12:15:34.524Z,21.90
2019-04-20T12:18:02.303Z,22.00
2019-04-20T12:20:32.490Z,22.00
2019-04-20T12:23:04.350Z,22.00
2019-04-20T12:25:36.134Z,22.00
2019-04-20T12:28:05.700Z,21.80
2019-04-20T12:30:35.515Z,21.80
2019-04-20T12:33:05.789Z,21.90
2019-04-20T12:35:36.188Z,21.80
2019-04-20T12:38:07.215Z,21.80
2019-04-20T12:40:37.935Z,21.80
2019-04-20T12:43:08.851Z,21.90
2019-04-20T12:45:39.970Z,21.90
2019-04-20T12:48:09.804Z,22.00
2019-04-20T12:50:39.780Z,22.00
2019-04-20T12:53:10.606Z,22.00
2019-04-20T12:55:40.887Z,22.00
2019-04-20T12:58:12.499Z,22.10
2019-04-20T13:00:46.705Z,22.10
2019-04-20T13:03:17.255Z,22.00
2019-04-20T13:05:47.841Z,22.10
2019-04-20T13:08:23.302Z,22.10
2019-04-20T13:10:58.366Z,22.10
2019-04-20T13:13:54.864Z,22.20
2019-04-20T13:16:36.477Z,22.20
2019-04-20T13:19:06.104Z,22.20
2019-04-20T13:21:36.812Z,22.30
2019-04-20T13:24:07.012Z,22.20
2019-04-20T13:26:37.246Z,22.30
2019-04-20T13:29:06.846Z,22.30
2019-04-20T13:31:37.726Z,22.30
2019-04-20T13:34:07.987Z,22.30
2019-04-20T13:36:38.085Z,22.30
2019-04-20T13:39:10.157Z,22.30
2019-04-20T13:41:39.975Z,22.30
2019-04-20T13:44:11.511Z,22.30
2019-04-20T13:46:41.281Z,22.30
2019-04-20T13:49:11.462Z,22.40
2019-04-20T13:51:41.018Z,22.40
2019-04-20T13:54:15.113Z,22.40
2019-04-20T13:56:42.050Z,22.30
2019-04-20T13:59:40.095Z,22.40
2019-04-20T14:02:36.759Z,22.40
2019-04-20T14:05:08.591Z,22.40
2019-04-20T14:07:39.671Z,22.40
2019-04-20T14:10:09.481Z,22.30
2019-04-20T14:12:45.122Z,22.20
2019-04-20T14:15:11.599Z,22.20
2019-04-20T14:17:41.406Z,22.20
2019-04-20T14:20:14.924Z,22.20
2019-04-20T14:22:43.018Z,22.20
2019-04-20T14:25:13.202Z,22.30
2019-04-20T14:27:44.630Z,22.30
2019-04-20T14:30:15.125Z,22.30
2019-04-20T14:32:45.075Z,22.30
2019-04-20T14:35:15.052Z,22.20
2019-04-20T14:37:45.809Z,22.20
2019-04-20T14:40:16.658Z,22.30
2019-04-20T14:42:51.341Z,22.30
2019-04-20T14:45:18.581Z,22.30
2019-04-20T14:47:48.267Z,22.30
2019-04-20T14:50:20.674Z,22.30
2019-04-20T14:52:51.413Z,22.30
2019-04-20T14:55:22.456Z,22.40
2019-04-20T14:57:53.195Z,22.40
2019-04-20T15:00:43.739Z,22.40
2019-04-20T15:03:30.797Z,22.30
2019-04-20T15:06:02.065Z,22.40
2019-04-20T15:08:32.785Z,22.40
2019-04-20T15:11:02.940Z,22.40
2019-04-20T15:13:32.934Z,22.40
2019-04-20T15:16:02.768Z,22.40
2019-04-20T15:18:39.756Z,22.40
2019-04-20T15:21:11.403Z,22.30
2019-04-20T15:23:41.563Z,22.30
2019-04-20T15:26:12.720Z,22.30
2019-04-20T15:28:43.894Z,22.30
2019-04-20T15:31:14.277Z,22.30
2019-04-20T15:33:45.283Z,22.30
2019-04-20T15:36:16.167Z,22.30
2019-04-20T15:38:47.247Z,22.30
2019-04-20T15:41:18.362Z,22.30
2019-04-20T15:43:49.113Z,22.30
2019-04-20T15:46:19.411Z,22.30
2019-04-20T15:48:50.245Z,22.30
2019-04-20T15:51:19.787Z,22.30
2019-04-20T15:53:49.586Z,22.30
2019-04-20T15:56:18.951Z,22.20
2019-04-20T15:58:48.418Z,22.10
2019-04-20T16:01:20.663Z,22.10
2019-04-20T16:04:11.765Z,22.00
2019-04-20T16:06:41.190Z,22.00
2019-04-20T16:09:12.307Z,22.00
2019-04-20T16:11:42.419Z,22.00
2019-04-20T16:14:13.425Z,22.00
2019-04-20T16:16:44.455Z,22.00
2019-04-20T16:19:27.639Z,22.00
2019-04-20T16:21:47.906Z,22.00
2019-04-20T16:24:18.985Z,21.90
2019-04-20T16:27:27.543Z,21.90
2019-04-20T16:29:57.759Z,21.90
2019-04-20T16:32:27.807Z,21.90
2019-04-20T16:34:58.283Z,21.80
2019-04-20T16:37:30.487Z,21.80
2019-04-20T16:40:02.806Z,21.80
2019-04-20T16:42:32.279Z,21.80
2019-04-20T16:45:03.146Z,21.70
2019-04-20T16:47:34.381Z,21.70
2019-04-20T16:50:04.737Z,21.70
2019-04-20T16:52:34.791Z,21.60
2019-04-20T16:55:06.059Z,21.60
2019-04-20T16:57:37.321Z,21.60
2019-04-20T17:00:07.489Z,21.50
2019-04-20T17:02:38.215Z,21.50
2019-04-20T17:05:09.206Z,21.50
2019-04-20T17:07:44.937Z,21.40
2019-04-20T17:10:16.444Z,21.30
2019-04-20T17:12:46.401Z,21.20
2019-04-20T17:15:16.076Z,21.20
2019-04-20T17:17:48.330Z,21.10
2019-04-20T17:20:17.857Z,21.10
2019-04-20T17:22:48.495Z,21.00
2019-04-20T17:25:19.644Z,21.00
2019-04-20T17:28:07.337Z,20.90
2019-04-20T17:31:01.047Z,20.80
2019-04-20T17:33:50.796Z,20.80
2019-04-20T17:36:15.611Z,20.70
2019-04-20T17:38:47.302Z,20.70
2019-04-20T17:41:33.358Z,20.60
2019-04-20T17:44:04.149Z,20.60
2019-04-20T17:46:28.742Z,20.50
2019-04-20T17:49:03.823Z,20.40
2019-04-20T17:51:46.092Z,20.40
2019-04-20T17:54:08.916Z,20.30
2019-04-20T17:56:40.368Z,20.20
2019-04-20T17:59:10.635Z,20.10
2019-04-20T18:02:11.388Z,20.00
2019-04-20T18:05:06.481Z,20.00
2019-04-20T18:07:35.485Z,19.90
2019-04-20T18:10:03.079Z,19.80
2019-04-20T18:12:23.124Z,19.70
2019-04-20T18:14:58.110Z,19.70
2019-04-20T18:17:55.036Z,19.60
2019-04-20T18:20:12.745Z,19.50
2019-04-20T18:22:44.052Z,19.40
2019-04-20T18:25:41.769Z,19.40
2019-04-20T18:27:59.733Z,19.20
2019-04-20T18:30:39.145Z,19.20
2019-04-20T18:32:59.036Z,19.10
2019-04-20T18:35:34.769Z,19.00
2019-04-20T18:38:07.688Z,18.90
2019-04-20T18:40:41.777Z,18.80
2019-04-20T18:43:11.338Z,18.80
2019-04-20T18:46:00.503Z,18.70
2019-04-20T18:48:33.469Z,18.60
2019-04-20T18:50:40.756Z,18.50
2019-04-20T18:53:16.653Z,18.30
2019-04-20T18:55:47.044Z,18.20
2019-04-20T18:58:13.338Z,18.10
2019-04-20T19:00:51.146Z,18.00
2019-04-20T19:03:25.261Z,17.90
2019-04-20T19:05:47.670Z,17.80
2019-04-20T19:08:18.941Z,17.60
2019-04-20T19:10:58.895Z,17.50
2019-04-20T19:13:44.541Z,17.40
2019-04-20T19:16:34.700Z,17.30
2019-04-20T19:19:21.228Z,17.20
2019-04-20T19:21:40.261Z,17.00
2019-04-20T19:24:13.316Z,16.90
2019-04-20T19:26:45.086Z,16.80
2019-04-20T19:29:20.429Z,16.70
2019-04-20T19:32:03.952Z,16.60
2019-04-20T19:34:35.291Z,16.50
2019-04-20T19:37:00.884Z,16.30
2019-04-20T19:39:38.530Z,16.20
2019-04-20T19:42:01.739Z,16.10
2019-04-20T19:44:40.764Z,16.00
2019-04-20T19:47:16.995Z,15.90
2019-04-20T19:49:37.843Z,15.70
2019-04-20T19:52:25.450Z,15.60
2019-04-20T19:54:46.712Z,15.50
2019-04-20T19:57:16.232Z,15.40
2019-04-20T19:59:38.711Z,15.30
2019-04-20T20:02:03.741Z,15.20
2019-04-20T20:04:42.468Z,15.10
2019-04-20T20:07:17.747Z,15.10
2019-04-20T20:09:47.340Z,15.00
2019-04-20T20:12:14.028Z,14.90
2019-04-20T20:14:44.803Z,14.80
2019-04-20T20:17:35.619Z,14.70
2019-04-20T20:20:06.872Z,14.60
2019-04-20T20:22:26.732Z,14.50
2019-04-20T20:24:47.156Z,14.40
2019-04-20T20:27:25.616Z,14.40
2019-04-20T20:29:59.743Z,14.30
2019-04-20T20:32:39.194Z,14.20
2019-04-20T20:35:04.529Z,14.10
2019-04-20T20:37:32.140Z,14.00
2019-04-20T20:40:07.846Z,14.00
2019-04-20T20:42:33.004Z,13.90
2019-04-20T20:45:09.178Z,13.80
2019-04-20T20:47:48.725Z,13.60
2019-04-20T20:50:22.739Z,13.60
2019-04-20T20:52:50.572Z,13.50
2019-04-20T20:55:17.232Z,13.30
2019-04-20T20:57:44.835Z,13.20
2019-04-20T21:00:25.267Z,13.10
2019-04-20T21:02:48.621Z,13.10
2019-04-20T21:05:11.559Z,13.00
2019-04-20T21:07:42.755Z,12.90
2019-04-20T21:10:15.338Z,12.90
2019-04-20T21:12:55.257Z,12.80
2019-04-20T21:15:22.256Z,12.70
2019-04-20T21:18:17.411Z,12.60
2019-04-20T21:20:44.559Z,12.60
2019-04-20T21:23:07.303Z,12.40
2019-04-20T21:25:36.680Z,12.30
2019-04-20T21:28:02.761Z,12.20
2019-04-20T21:30:42.772Z,12.10
2019-04-20T21:33:07.838Z,12.00
2019-04-20T21:35:44.620Z,11.90
2019-04-20T21:38:15.175Z,11.90
2019-04-20T21:40:49.254Z,11.80
2019-04-20T21:43:20.651Z,11.70
2019-04-20T21:45:56.356Z,11.70
2019-04-20T21:48:40.542Z,11.60
2019-04-20T21:51:13.729Z,11.50
2019-04-20T21:53:48.397Z,11.50
2019-04-20T21:56:19.788Z,11.50
2019-04-20T21:58:57.503Z,11.40
2019-04-20T22:01:33.597Z,11.30
2019-04-20T22:04:47.293Z,11.20
2019-04-20T22:08:03.250Z,11.10
2019-04-20T22:10:50.054Z,11.10
2019-04-20T22:13:29.571Z,10.90
2019-04-20T22:16:04.844Z,10.90
2019-04-20T22:18:31.799Z,10.80
2019-04-20T22:21:14.211Z,10.80
2019-04-20T22:23:56.648Z,10.80
2019-04-20T22:26:54.904Z,10.70
2019-04-20T22:29:16.182Z,10.60
2019-04-20T22:31:56.468Z,10.60
2019-04-20T22:34:28.081Z,10.60
2019-04-20T22:40:06.835Z,10.50
2019-04-20T22:42:46.306Z,10.50
2019-04-20T22:49:08.123Z,10.40
2019-04-20T22:59:13.150Z,10.20
2019-04-20T23:05:00.810Z,10.10
2019-04-20T23:11:21.646Z,10.00
2019-04-20T23:17:40.231Z,9.80
2019-04-20T23:31:18.349Z,9.60
2019-04-20T23:37:36.503Z,9.50
2019-04-20T23:59:39.563Z,9.20
